Time;durP1;ratioP1;P1;durP2;ratioP2;P2;SDS_P1;SDS_P2;PMS_P1;PMS_P2;Temp;Humidity;BMP_temperature;BMP_pressure;BME280_temperature;BME280_humidity;BME280_pressure;Samples;Min_cycle;Max_cycle;Signal;HPM_P1;HPM_P2
2022/01/23 00:00:05;;;;;;;5.30;3.60;;;;;;;-2.91;70.17;101369.59;107885;1249;72143;-82
2022/01/23 00:03:00;;;;;;;4.30;2.90;;;;;;;-2.94;70.21;101366.71;107793;1249;61589;-84
2022/01/23 00:05:34;;;;;;;5.80;3.50;;;;;;;-2.98;70.80;101374.07;108298;1250;60486;-83
2022/01/23 00:08:05;;;;;;;7.40;4.00;;;;;;;-2.97;70.77;101374.91;107925;1249;74457;-83
2022/01/23 00:10:34;;;;;;;7.60;4.40;;;;;;;-3.00;70.26;101372.04;107468;1250;70302;-90
2022/01/23 00:13:27;;;;;;;8.00;4.40;;;;;;;-3.00;70.19;101372.72;107519;1250;70536;-86
2022/01/23 00:18:44;;;;;;;7.20;4.20;;;;;;;-3.04;70.47;101379.89;108129;1251;59817;-84
2022/01/23 00:21:14;;;;;;;7.20;3.80;;;;;;;-3.01;70.79;101377.50;107890;1249;59982;-82
2022/01/23 00:31:50;;;;;;;6.30;3.90;;;;;;;-3.11;70.35;101383.69;107249;1251;71499;-89
2022/01/23 00:34:19;;;;;;;7.10;4.00;;;;;;;-3.10;70.31;101386.58;107013;1252;61475;-87
2022/01/23 00:36:48;;;;;;;6.80;3.90;;;;;;;-3.11;70.67;101388.63;107049;1251;61946;-80
2022/01/23 00:39:17;;;;;;;8.80;4.20;;;;;;;-3.12;70.49;101387.27;107156;1252;72310;-86
2022/01/23 00:41:46;;;;;;;9.00;4.00;;;;;;;-3.10;70.11;101392.55;107150;1250;71001;-86
2022/01/23 00:44:15;;;;;;;5.20;2.80;;;;;;;-3.09;70.23;101393.05;107042;1252;67968;-84
2022/01/23 00:46:50;;;;;;;7.30;3.70;;;;;;;-3.10;70.46;101392.89;106832;1250;471128;-86
2022/01/23 00:49:25;;;;;;;10.50;4.30;;;;;;;-3.13;70.98;101385.06;107230;1250;61611;-86
2022/01/23 00:51:56;;;;;;;9.50;4.90;;;;;;;-3.10;70.71;101388.96;107205;1250;61170;-86
2022/01/23 00:54:26;;;;;;;9.80;4.90;;;;;;;-3.10;70.59;101387.60;107657;1251;74744;-85
2022/01/23 00:56:55;;;;;;;9.40;4.70;;;;;;;-3.11;70.71;101382.66;108429;1250;71464;-85
2022/01/23 00:59:24;;;;;;;5.70;3.40;;;;;;;-3.15;70.91;101384.90;108017;1252;70546;-84
2022/01/23 01:01:53;;;;;;;8.00;4.50;;;;;;;-3.15;70.75;101377.23;107441;1250;74858;-85
2022/01/23 01:04:23;;;;;;;8.20;4.60;;;;;;;-3.11;71.35;101374.83;107174;1251;61832;-87
2022/01/23 01:06:52;;;;;;;6.80;4.00;;;;;;;-3.05;71.19;101373.27;107210;1252;58993;-86
2022/01/23 01:09:21;;;;;;;9.20;4.60;;;;;;;-3.01;70.74;101370.67;106950;1252;71972;-89
2022/01/23 01:11:59;;;;;;;8.70;4.10;;;;;;;-3.01;70.48;101371.36;107423;1251;70606;-87
2022/01/23 01:30:16;;;;;;;7.60;4.00;;;;;;;-3.03;69.96;101366.27;107308;1251;61059;-85
2022/01/23 01:31:20;;;;;;;11.50;5.20;;;;;;;-3.25;71.34;101367.56;107288;1251;69807;-87
2022/01/23 01:33:59;;;;;;;8.90;4.80;;;;;;;-3.26;71.77;101366.38;107391;1250;74766;-87
2022/01/23 01:39:06;;;;;;;8.70;4.90;;;;;;;-3.27;71.73;101362.30;107303;1252;62480;-89
2022/01/23 01:41:39;;;;;;;6.00;3.80;;;;;;;-3.30;71.43;101358.23;107216;1252;72609;-85
2022/01/23 01:44:08;;;;;;;7.00;3.70;;;;;;;-3.34;71.78;101364.55;107304;1252;70396;-87
2022/01/23 01:46:57;;;;;;;8.50;3.80;;;;;;;-3.39;72.05;101367.13;107378;1251;67678;-88
2022/01/23 01:49:32;;;;;;;6.90;4.10;;;;;;;-3.37;73.03;101364.23;107202;1252;73350;-87
2022/01/23 01:52:04;;;;;;;10.80;4.90;;;;;;;-3.27;72.84;101369.13;106970;1255;61246;-88
2022/01/23 01:54:33;;;;;;;8.10;4.80;;;;;;;-3.23;72.75;101368.41;106876;1255;59744;-88
2022/01/23 01:57:10;;;;;;;9.90;4.90;;;;;;;-3.27;73.12;101366.21;107257;1254;73982;-87
2022/01/23 02:00:00;;;;;;;9.40;4.40;;;;;;;-3.27;73.86;101363.16;107063;1255;73809;-89
2022/01/23 02:08:28;;;;;;;11.90;6.50;;;;;;;-3.37;75.98;101365.59;107499;1253;60923;-88
2022/01/23 02:11:11;;;;;;;10.90;5.40;;;;;;;-3.35;76.08;101358.25;107193;1253;60144;-87
2022/01/23 02:14:09;;;;;;;15.20;6.70;;;;;;;-3.32;76.24;101362.66;107287;1253;72620;-86
2022/01/23 02:54:18;;;;;;;12.10;6.40;;;;;;;-3.54;79.08;101359.19;107893;1257;71546;-85
2022/01/23 02:56:47;;;;;;;12.20;6.40;;;;;;;-3.47;78.99;101348.45;108819;1250;72735;-84
2022/01/23 02:59:30;;;;;;;12.00;6.80;;;;;;;-3.43;78.64;101359.48;108614;1250;59019;-86
2022/01/23 03:02:39;;;;;;;13.00;6.90;;;;;;;-3.42;78.84;101356.07;107407;1252;58945;-87
2022/01/23 03:07:07;;;;;;;;;;;;;;;;;;;;;
2022/01/23 03:10:00;;;;;;;;;;;;;;;;;;;;;
2022/01/23 03:15:10;;;;;;;12.10;6.80;;;;;;;-3.41;78.68;101353.69;107328;1249;73146;-88
2022/01/23 03:31:44;;;;;;;12.30;7.00;;;;;;;-3.43;78.61;101358.29;107149;1249;75321;-89
2022/01/23 03:34:13;;;;;;;14.70;6.90;;;;;;;-3.45;78.54;101351.66;107281;1250;59727;-88
2022/01/23 03:36:43;;;;;;;11.60;6.20;;;;;;;-3.48;78.84;101351.66;107285;1250;59044;-75
2022/01/23 03:39:12;;;;;;;16.40;6.80;;;;;;;-3.39;78.41;101352.31;107245;1250;70965;-88
2022/01/23 03:41:43;;;;;;;13.80;6.60;;;;;;;-3.39;78.41;101354.53;107129;1253;71478;-87
2022/01/23 03:44:16;;;;;;;16.60;8.30;;;;;;;-3.49;78.65;101355.42;107295;1250;69673;-87
2022/01/23 03:46:49;;;;;;;;;;;;;;;-3.48;78.66;101348.27;107369;1252;71829;-87
2022/01/23 03:49:32;;;;;;;14.20;7.80;;;;;;;-3.46;78.80;101350.81;107246;1251;60586;-87
2022/01/23 03:52:43;;;;;;;17.10;7.00;;;;;;;-3.47;78.55;101354.73;107305;1250;59697;-74
2022/01/23 03:55:12;;;;;;;15.10;7.20;;;;;;;-3.50;78.73;101357.80;107547;1252;71389;-88
2022/01/23 03:57:41;;;;;;;12.00;6.90;;;;;;;-3.45;78.67;101355.07;107800;1251;71317;-83
2022/01/23 04:00:15;;;;;;;13.70;6.30;;;;;;;-3.43;78.41;101354.21;108014;1250;68375;-84
2022/01/23 04:02:45;;;;;;;13.40;7.50;;;;;;;-3.45;78.36;101357.28;107558;1249;74891;-75
2022/01/23 04:05:25;;;;;;;12.40;6.50;;;;;;;-3.56;79.23;101359.37;107555;1249;62642;-88
2022/01/23 04:07:54;;;;;;;16.00;7.70;;;;;;;-3.54;79.17;101357.14;107495;1250;61221;-84
2022/01/23 04:10:28;;;;;;;12.90;7.20;;;;;;;-3.52;79.10;101355.61;107670;1250;75369;-86
2022/01/23 04:13:15;;;;;;;15.10;6.90;;;;;;;-3.52;79.12;101361.23;107423;1249;70370;-86
2022/01/23 04:19:06;;;;;;;14.50;6.80;;;;;;;-3.52;79.27;101358.16;107139;1250;72911;-85
2022/01/23 04:35:44;;;;;;;11.80;6.50;;;;;;;-3.62;79.75;101362.64;107075;1252;71665;-88
2022/01/23 05:01:00;;;;;;;13.70;7.10;;;;;;;-3.59;79.42;101378.27;107315;1251;74426;-86
2022/01/23 05:07:10;;;;;;;12.00;6.80;;;;;;;-3.64;79.83;101384.42;107236;1252;69222;-90
2022/01/23 05:10:39;;;;;;;12.70;6.60;;;;;;;-3.66;79.96;101377.11;106723;1258;74308;-88
2022/01/23 05:13:29;;;;;;;6.90;4.10;;;;;;;-3.63;79.91;101381.52;106664;1259;59339;-86
2022/01/23 05:15:58;;;;;;;15.00;6.90;;;;;;;-3.60;79.91;101383.05;107597;1251;61346;-86
2022/01/23 05:18:27;;;;;;;11.20;5.50;;;;;;;-3.62;80.48;101382.89;107754;1252;72997;-87
2022/01/23 05:21:08;;;;;;;11.10;6.40;;;;;;;-3.63;80.79;101384.41;108134;1252;70356;-87
2022/01/23 05:23:37;;;;;;;12.90;7.40;;;;;;;-3.53;80.77;101386.09;107957;1252;68347;-86
2022/01/23 05:26:06;;;;;;;15.30;6.30;;;;;;;-3.58;80.67;101384.23;107608;1252;70273;-87
2022/01/23 05:28:35;;;;;;;15.40;7.80;;;;;;;-3.55;80.38;101378.27;107760;1252;60596;-88
2022/01/23 05:31:05;;;;;;;6.80;3.90;;;;;;;-3.51;80.48;101376.55;107713;1251;61303;-87
2022/01/23 05:33:34;;;;;;;14.20;7.00;;;;;;;-3.59;80.47;101379.63;108056;1250;73645;-87
2022/01/23 05:36:05;;;;;;;12.20;6.00;;;;;;;-3.62;80.30;101379.48;108058;1252;72949;-87
2022/01/23 05:38:34;;;;;;;14.10;7.20;;;;;;;-3.62;79.92;101383.56;107847;1252;69496;-86
2022/01/23 05:41:04;;;;;;;12.90;6.70;;;;;;;-3.57;79.88;101383.55;107868;1252;72839;-89
2022/01/23 05:43:35;;;;;;;16.20;7.80;;;;;;;-3.56;79.87;101381.33;108210;1252;62112;-88
2022/01/23 05:46:05;;;;;;;12.70;7.20;;;;;;;-3.51;80.10;101376.39;108731;1252;60682;-86
2022/01/23 05:48:34;;;;;;;11.80;6.50;;;;;;;-3.53;80.12;101379.45;109027;1251;71190;-87
2022/01/23 05:51:22;;;;;;;18.30;8.60;;;;;;;-3.50;79.59;101376.38;108631;1252;71961;-88
2022/01/23 05:53:56;;;;;;;12.90;7.30;;;;;;;-3.56;79.81;101380.14;108651;1251;68422;-87
2022/01/23 05:56:44;;;;;;;15.70;8.20;;;;;;;-3.54;79.92;101388.31;107805;1252;73537;-85
2022/01/23 05:59:13;;;;;;;12.80;6.70;;;;;;;-3.57;79.97;101393.25;107431;1252;60074;-86
2022/01/23 06:01:46;;;;;;;16.10;8.40;;;;;;;-3.56;80.10;101391.21;107407;1251;59460;-89
2022/01/23 06:04:19;;;;;;;10.80;5.90;;;;;;;-3.56;80.33;101390.02;107382;1252;72592;-88
2022/01/23 06:06:56;;;;;;;14.50;7.70;;;;;;;-3.49;80.19;101387.95;108062;1251;70715;-86
2022/01/23 06:09:27;;;;;;;9.00;5.00;;;;;;;-3.54;80.10;101393.23;107661;1252;68777;-87
2022/01/23 06:11:56;;;;;;;17.30;8.50;;;;;;;-3.56;79.77;101394.79;107759;1252;74919;-86
2022/01/23 06:14:26;;;;;;;8.60;3.90;;;;;;;-3.56;79.84;101393.92;108613;1251;61282;-89
2022/01/23 06:16:56;;;;;;;14.80;7.20;;;;;;;-3.53;79.88;101397.84;107183;1252;61729;-90
2022/01/23 06:19:57;;;;;;;16.60;6.60;;;;;;;-3.55;80.07;101401.25;107023;1252;74459;-87
2022/01/23 06:22:47;;;;;;;22.70;8.10;;;;;;;-3.55;80.06;101401.92;107339;1252;71133;-89
2022/01/23 06:25:36;;;;;;;20.50;7.40;;;;;;;-3.47;79.94;101404.12;107429;1250;67958;-89
2022/01/23 06:28:38;;;;;;;14.90;5.90;;;;;;;-3.48;79.79;101403.11;107381;1252;73729;-85
2022/01/23 06:31:08;;;;;;;17.70;8.10;;;;;;;-3.39;79.08;101407.67;107320;1252;61988;-91
2022/01/23 06:33:38;;;;;;;17.40;8.70;;;;;;;-3.49;79.50;101406.17;107344;1252;60946;-88
2022/01/23 06:36:09;;;;;;;13.10;6.30;;;;;;;-3.51;79.72;101412.31;107246;1252;71305;-90
2022/01/23 06:38:38;;;;;;;14.30;8.00;;;;;;;-3.42;79.75;101408.36;107320;1252;72622;-89
2022/01/23 06:41:08;;;;;;;17.20;7.80;;;;;;;-3.45;80.08;101408.72;107288;1252;69169;-87
2022/01/23 06:44:05;;;;;;;12.70;5.60;;;;;;;-3.39;79.32;101410.05;107410;1251;70172;-88
2022/01/23 06:46:40;;;;;;;14.40;7.20;;;;;;;-3.39;78.63;101411.75;107375;1251;59528;-90
2022/01/23 06:49:10;;;;;;;17.10;8.90;;;;;;;-3.46;79.31;101418.77;108088;1247;59487;-87
2022/01/23 06:51:42;;;;;;;18.40;7.30;;;;;;;-3.42;79.20;101418.23;107909;1248;72848;-89
2022/01/23 06:54:11;;;;;;;14.60;7.80;;;;;;;-3.35;78.78;101418.55;107557;1248;73162;-87
2022/01/23 06:56:40;;;;;;;15.90;7.20;;;;;;;-3.36;78.53;101423.49;107664;1249;68688;-85
2022/01/23 06:59:09;;;;;;;12.70;6.80;;;;;;;-3.33;78.07;101420.76;107334;1249;73014;-87
2022/01/23 07:01:41;;;;;;;17.80;8.10;;;;;;;-3.35;78.25;101424.00;107717;1249;60565;-89
2022/01/23 07:04:57;;;;;;;11.40;5.20;;;;;;;-3.26;78.01;101424.98;107584;1249;60377;-88
2022/01/23 07:08:14;;;;;;;13.10;7.10;;;;;;;-3.23;77.90;101430.95;107639;1248;73303;-92
2022/01/23 07:11:07;;;;;;;18.00;7.60;;;;;;;-3.05;77.47;101422.00;107986;1246;73035;-89
2022/01/23 07:14:26;;;;;;;12.80;6.50;;;;;;;-2.89;77.12;101425.48;107708;1246;70215;-88
2022/01/23 07:17:13;;;;;;;13.60;6.40;;;;;;;-2.77;76.37;101430.70;108051;1246;73894;-87
2022/01/23 07:19:50;;;;;;;14.80;8.10;;;;;;;-2.82;76.49;101432.61;107806;1246;58855;-90
2022/01/23 07:22:29;;;;;;;11.00;6.10;;;;;;;-2.77;76.28;101438.20;107761;1246;61667;-91
2022/01/23 07:25:02;;;;;;;13.70;6.20;;;;;;;-2.70;75.99;101442.77;107767;1246;73830;-88
2022/01/23 07:27:37;;;;;;;13.40;6.10;;;;;;;-2.76;75.91;101439.40;107943;1246;72516;-86
2022/01/23 07:30:22;;;;;;;12.10;7.30;;;;;;;-2.85;76.09;101444.05;107769;1249;70274;-89
2022/01/23 07:32:51;;;;;;;13.50;7.00;;;;;;;-2.76;75.64;101440.93;107912;1246;72044;-88
2022/01/23 07:35:21;;;;;;;10.70;5.20;;;;;;;-2.75;75.86;101446.39;107810;1246;62665;-88
2022/01/23 07:37:50;;;;;;;11.80;6.60;;;;;;;-2.71;75.64;101449.77;107891;1246;60418;-90
2022/01/23 07:40:38;;;;;;;9.80;5.00;;;;;;;-2.73;76.21;101445.01;107892;1246;72587;-88
2022/01/23 07:43:16;;;;;;;13.10;5.90;;;;;;;-2.55;76.09;101444.04;107729;1247;69684;-89
2022/01/23 07:46:04;;;;;;;15.70;7.40;;;;;;;-2.42;75.93;101453.16;107809;1246;70957;-90
2022/01/23 07:48:43;;;;;;;11.70;6.20;;;;;;;-2.31;75.54;101457.54;107664;1246;73475;-76
2022/01/23 07:51:45;;;;;;;12.50;6.40;;;;;;;-2.26;74.76;101465.17;107429;1246;59722;-74
2022/01/23 07:54:54;;;;;;;10.80;5.50;;;;;;;-2.51;75.16;101465.67;107136;1246;59039;-72
2022/01/23 07:57:35;;;;;;;11.70;5.90;;;;;;;-2.30;74.31;101464.34;107375;1246;72882;-69
2022/01/23 08:00:23;;;;;;;9.90;5.40;;;;;;;-2.38;74.51;101466.10;107295;1247;73221;-70
2022/01/23 08:02:51;;;;;;;10.90;5.50;;;;;;;-2.31;74.20;101462.98;107378;1247;70179;-71
2022/01/23 08:05:42;;;;;;;11.70;5.70;;;;;;;-2.40;74.12;101466.80;107409;1246;75254;-78
2022/01/23 08:09:01;;;;;;;9.80;6.00;;;;;;;-2.41;74.61;101468.85;107071;1249;62379;-74
2022/01/23 08:11:36;;;;;;;10.30;6.00;;;;;;;-2.41;74.38;101468.17;107403;1246;61214;-74
2022/01/23 08:14:06;;;;;;;10.40;5.50;;;;;;;-2.34;73.76;101460.62;107426;1246;72648;-75
2022/01/23 08:16:35;;;;;;;9.90;5.40;;;;;;;-2.29;73.48;101460.23;107168;1246;71926;-77
2022/01/23 08:19:05;;;;;;;10.80;6.10;;;;;;;-2.31;73.39;101465.88;107490;1246;70624;-76
2022/01/23 08:21:34;;;;;;;6.80;4.40;;;;;;;-2.46;74.25;101471.27;107433;1246;71920;-79
2022/01/23 08:24:05;;;;;;;13.50;7.00;;;;;;;-2.30;74.16;101469.81;108220;1246;59616;-76
2022/01/23 08:26:34;;;;;;;7.70;4.10;;;;;;;-2.28;74.16;101472.02;107626;1246;59519;-78
2022/01/23 08:29:05;;;;;;;13.60;5.80;;;;;;;-2.21;73.46;101476.73;107442;1249;72708;-75
2022/01/23 08:31:34;;;;;;;10.80;5.30;;;;;;;-2.22;73.50;101480.32;107560;1246;68777;-75
2022/01/23 08:34:03;;;;;;;9.20;5.00;;;;;;;-2.26;73.08;101488.70;107435;1249;69090;-78
2022/01/23 08:36:35;;;;;;;14.30;5.40;;;;;;;-2.26;73.49;101496.05;107488;1248;71214;-76
2022/01/23 08:39:04;;;;;;;8.50;4.20;;;;;;;-2.48;74.08;101495.33;108149;1246;59656;-73
2022/01/23 08:41:49;;;;;;;10.40;5.90;;;;;;;-2.34;74.98;101502.25;108293;1246;59691;-73
2022/01/23 08:44:22;;;;;;;12.50;5.70;;;;;;;-2.36;74.99;101504.99;107661;1246;73368;-74
2022/01/23 08:46:52;;;;;;;13.50;6.40;;;;;;;-2.34;74.68;101505.15;107513;1247;73342;-73
2022/01/23 08:49:23;;;;;;;11.90;6.30;;;;;;;-2.30;74.79;101510.06;107488;1246;70363;-72
2022/01/23 08:51:54;;;;;;;9.70;5.20;;;;;;;-2.29;74.37;101513.48;107560;1247;74460;-73
2022/01/23 08:54:24;;;;;;;7.90;4.90;;;;;;;-2.23;73.48;101509.52;107560;1246;61022;-72
2022/01/23 08:56:54;;;;;;;9.90;5.60;;;;;;;-2.48;74.09;101515.82;107572;1246;60066;-72
2022/01/23 08:59:24;;;;;;;10.20;5.10;;;;;;;-2.48;74.59;101512.57;107412;1246;74418;-72
2022/01/23 09:01:53;;;;;;;10.70;5.60;;;;;;;-2.32;74.00;101509.92;107384;1246;72877;-72
2022/01/23 09:04:22;;;;;;;11.10;5.50;;;;;;;-2.36;74.41;101506.86;107472;1248;69513;-73
2022/01/23 09:06:51;;;;;;;9.00;5.90;;;;;;;-2.18;73.95;101509.48;107396;1249;72178;-74
2022/01/23 09:09:23;;;;;;;12.80;6.50;;;;;;;-2.14;73.55;101512.52;107442;1246;59630;-75
2022/01/23 09:14:21;;;;;;;13.90;6.90;;;;;;;-2.06;72.36;101520.83;107417;1249;72831;-74
2022/01/23 09:16:52;;;;;;;10.40;5.70;;;;;;;-2.12;72.85;101512.50;107518;1246;68680;-74
2022/01/23 09:19:23;;;;;;;12.50;5.80;;;;;;;-2.27;73.37;101514.30;107426;1246;67924;-74
2022/01/23 09:21:54;;;;;;;8.10;4.20;;;;;;;-2.21;73.70;101509.15;107143;1248;71193;-76
2022/01/23 09:24:25;;;;;;;12.30;6.30;;;;;;;-2.03;73.12;101507.66;107301;1249;59664;-76
2022/01/23 09:27:01;;;;;;;13.30;7.00;;;;;;;-1.82;72.33;101499.96;107396;1246;59553;-75
2022/01/23 09:32:09;;;;;;;;;;;;;;;-1.76;71.54;101488.83;107320;1247;71849;-72
2022/01/23 09:34:41;;;;;;;9.60;5.10;;;;;;;-1.52;71.21;101489.09;107194;1248;70350;-75
2022/01/23 09:37:13;;;;;;;6.70;4.10;;;;;;;-1.41;70.97;101491.21;107207;1249;73353;-75
2022/01/23 09:39:45;;;;;;;9.20;4.80;;;;;;;-1.33;70.06;101492.67;107317;1249;59634;-77
2022/01/23 09:42:23;;;;;;;12.30;6.80;;;;;;;-1.51;69.76;101498.82;107329;1250;59811;-75
2022/01/23 09:44:59;;;;;;;11.40;7.10;;;;;;;-1.46;70.03;101498.43;107376;1249;72819;-78
2022/01/23 09:47:28;;;;;;;11.80;6.40;;;;;;;-1.56;70.36;101497.17;107539;1246;70203;-75
2022/01/23 09:50:00;;;;;;;13.00;4.50;;;;;;;-1.53;70.47;101492.53;107582;1247;70069;-75
2022/01/23 09:52:33;;;;;;;14.10;6.30;;;;;;;-1.56;71.55;101490.86;107449;1248;73980;-74
2022/01/23 09:55:08;;;;;;;8.60;4.00;;;;;;;-1.61;71.53;101500.64;107499;1248;60650;-76
2022/01/23 09:57:44;;;;;;;10.80;5.50;;;;;;;-1.77;72.36;101500.45;107436;1248;61305;-72
2022/01/23 10:00:17;;;;;;;10.80;6.40;;;;;;;-1.63;71.71;101501.16;107492;1246;74001;-75
2022/01/23 10:02:46;;;;;;;11.90;7.00;;;;;;;-1.59;71.73;101500.80;107643;1247;71808;-80
2022/01/23 10:05:17;;;;;;;13.20;7.30;;;;;;;-1.73;72.39;101499.89;107693;1246;71258;-76
2022/01/23 10:07:47;;;;;;;10.00;6.00;;;;;;;-1.62;72.30;101501.84;107508;1247;72513;-78
2022/01/23 10:10:23;;;;;;;12.20;6.30;;;;;;;-1.49;72.54;101500.35;107550;1247;62137;-73
2022/01/23 10:12:57;;;;;;;12.30;6.50;;;;;;;-1.58;72.53;101502.14;107552;1246;59644;-79
2022/01/23 10:15:31;;;;;;;9.10;5.60;;;;;;;-1.40;72.68;101500.93;107558;1246;71776;-79
2022/01/23 10:18:01;;;;;;;12.60;6.70;;;;;;;-1.31;71.31;101498.64;107457;1248;73207;-74
2022/01/23 10:20:30;;;;;;;14.30;7.20;;;;;;;-1.46;72.37;101497.08;107518;1246;70247;-81
2022/01/23 10:23:00;;;;;;;15.30;7.00;;;;;;;-1.36;71.95;101497.30;107460;1247;73877;-73
2022/01/23 10:25:32;;;;;;;13.40;6.60;;;;;;;-1.40;72.03;101502.64;107382;1247;61347;-74
2022/01/23 10:28:08;;;;;;;16.40;7.30;;;;;;;-1.48;71.92;101508.70;107217;1249;62015;-81
2022/01/23 10:30:52;;;;;;;13.60;5.40;;;;;;;-1.50;71.73;101505.98;107605;1247;75836;-81
2022/01/23 10:33:23;;;;;;;9.50;5.80;;;;;;;-1.48;71.31;101510.94;107442;1246;72667;-82
2022/01/23 10:36:14;;;;;;;10.40;5.60;;;;;;;-1.54;71.03;101515.95;107373;1247;70362;-81
2022/01/23 10:38:58;;;;;;;10.90;5.80;;;;;;;-1.69;72.02;101505.15;107406;1246;73634;-83
2022/01/23 10:50:09;;;;;;;10.10;5.10;;;;;;;-1.88;74.81;101519.48;108359;1246;69724;-78
2022/01/23 10:52:38;;;;;;;12.70;6.60;;;;;;;-1.74;74.37;101519.20;107717;1247;70561;-84
2022/01/23 10:55:13;;;;;;;10.10;6.10;;;;;;;-1.68;73.81;101518.11;107461;1249;72319;-75
2022/01/23 10:57:47;;;;;;;13.50;6.60;;;;;;;-1.77;73.81;101519.23;107443;1247;61637;-83
2022/01/23 11:00:39;;;;;;;16.40;7.90;;;;;;;-1.64;73.60;101517.23;107347;1247;59612;-87
2022/01/23 11:03:22;;;;;;;13.20;7.20;;;;;;;-1.57;74.14;101521.95;107455;1248;72521;-82
2022/01/23 11:05:53;;;;;;;12.60;7.20;;;;;;;-1.56;74.30;101523.98;107419;1247;72666;-82
2022/01/23 11:08:33;;;;;;;13.50;7.10;;;;;;;-1.37;73.86;101526.02;107398;1247;71131;-85
2022/01/23 11:11:06;;;;;;;12.60;6.30;;;;;;;-1.54;73.63;101529.78;107269;1248;75648;-81
2022/01/23 11:19:40;;;;;;;10.80;6.20;;;;;;;-1.59;73.53;101539.73;107332;1247;73426;-87
2022/01/23 11:22:42;;;;;;;14.70;8.30;;;;;;;-1.58;73.37;101542.13;107296;1246;70364;-85
2022/01/23 11:25:11;;;;;;;13.60;7.30;;;;;;;-1.59;73.52;101543.50;107722;1246;70297;-84
2022/01/23 11:27:40;;;;;;;13.40;6.30;;;;;;;-1.55;73.31;101543.13;108018;1246;74017;-81
2022/01/23 11:30:13;;;;;;;16.70;8.10;;;;;;;-1.63;73.62;101541.65;108501;1246;61380;-75
2022/01/23 11:32:43;;;;;;;17.30;7.90;;;;;;;-1.59;74.28;101546.40;107826;1248;61038;-86
2022/01/23 11:35:18;;;;;;;14.50;7.30;;;;;;;-1.69;74.95;101543.08;107409;1247;73927;-87
2022/01/23 11:37:49;;;;;;;11.10;6.70;;;;;;;-1.76;74.70;101550.46;107357;1250;70414;-85
2022/01/23 11:40:41;;;;;;;10.20;5.70;;;;;;;-1.65;73.60;101548.84;107426;1246;68895;-80
2022/01/23 11:54:50;;;;;;;11.40;6.60;;;;;;;-1.75;73.98;101567.38;107492;1249;73015;-88
2022/01/23 11:57:44;;;;;;;11.30;6.00;;;;;;;-1.88;75.30;101575.84;107511;1248;68742;-88
2022/01/23 12:00:39;;;;;;;9.00;5.10;;;;;;;-1.88;75.00;101584.71;107394;1247;73178;-84
2022/01/23 12:03:17;;;;;;;11.30;6.20;;;;;;;-1.84;74.96;101588.61;107315;1250;59162;-75
2022/01/23 12:06:12;;;;;;;11.30;6.80;;;;;;;-1.80;74.41;101588.41;107480;1248;59823;-88
2022/01/23 12:08:40;;;;;;;13.60;6.80;;;;;;;-1.86;74.45;101588.30;107581;1249;75438;-85
2022/01/23 12:11:59;;;;;;;;;;;;;;;;;;;;;
2022/01/23 12:17:11;;;;;;;9.90;5.80;;;;;;;-1.86;73.29;101600.58;107466;1248;74962;-89
2022/01/23 12:19:46;;;;;;;12.80;5.60;;;;;;;-2.11;73.53;101608.42;107345;1247;59324;-86
2022/01/23 12:22:37;;;;;;;12.60;6.90;;;;;;;-2.17;74.76;101614.42;107444;1248;60517;-86
2022/01/23 12:25:19;;;;;;;12.80;7.50;;;;;;;-2.20;75.47;101614.10;107577;1248;72641;-85
2022/01/23 12:28:21;;;;;;;13.90;7.60;;;;;;;-2.18;76.23;101618.70;107496;1248;72169;-90
2022/01/23 12:30:56;;;;;;;11.80;7.20;;;;;;;-2.08;76.01;101618.65;107612;1247;71891;-82
2022/01/23 12:33:39;;;;;;;19.10;9.10;;;;;;;-1.93;75.10;101620.27;107522;1248;74338;-87
2022/01/23 12:36:14;;;;;;;12.80;6.80;;;;;;;-1.78;74.64;101614.19;107708;1248;62223;-82
2022/01/23 12:39:06;;;;;;;18.80;9.30;;;;;;;-1.67;74.31;101620.25;107690;1247;59713;-84
2022/01/23 12:42:02;;;;;;;21.80;10.00;;;;;;;-1.63;73.36;101620.39;107496;1248;73223;-82
2022/01/23 12:44:35;;;;;;;11.30;7.50;;;;;;;-1.77;73.26;101612.80;107180;1247;384252;-81
2022/01/23 12:47:19;;;;;;;13.60;7.80;;;;;;;-1.74;73.42;101616.73;107313;1249;70104;-84
2022/01/23 12:49:50;;;;;;;12.40;6.80;;;;;;;-1.73;73.20;101618.08;107432;1248;74171;-85
2022/01/23 12:52:23;;;;;;;9.90;5.40;;;;;;;-1.54;73.39;101617.08;107415;1247;60034;-85
2022/01/23 12:54:56;;;;;;;8.40;5.40;;;;;;;-1.46;72.68;101613.77;107483;1249;61867;-86
2022/01/23 12:57:35;;;;;;;12.20;6.40;;;;;;;-1.51;72.50;101625.09;107427;1247;75440;-85
2022/01/23 13:00:16;;;;;;;11.90;6.00;;;;;;;-1.48;72.06;101626.61;107322;1247;71789;-87
2022/01/23 13:02:49;;;;;;;12.20;6.50;;;;;;;-1.58;72.83;101623.94;107529;1247;69325;-76
2022/01/23 13:05:19;;;;;;;11.80;6.50;;;;;;;-1.56;73.32;101628.55;107387;1248;73780;-81
2022/01/23 13:08:02;;;;;;;13.70;7.50;;;;;;;-1.59;73.75;101628.58;107431;1247;59539;-75
2022/01/23 13:13:38;;;;;;;13.70;7.00;;;;;;;-1.91;74.18;101632.73;107314;1247;73242;-80
2022/01/23 13:19:18;;;;;;;17.20;8.60;;;;;;;-1.97;74.65;101645.38;107259;1247;69572;-80
2022/01/23 13:30:22;;;;;;;14.20;8.20;;;;;;;-1.62;72.89;101666.17;107314;1247;74762;-75
2022/01/23 13:33:00;;;;;;;18.10;10.40;;;;;;;-1.64;72.68;101670.96;107326;1247;72668;-74
2022/01/23 13:35:36;;;;;;;14.90;8.00;;;;;;;-1.74;72.99;101678.03;107359;1247;70888;-77
2022/01/23 13:38:15;;;;;;;20.80;9.50;;;;;;;-1.79;72.89;101683.02;107394;1249;72978;-73
2022/01/23 13:40:44;;;;;;;15.00;8.40;;;;;;;-1.96;73.48;101692.50;107159;1247;62188;-74
2022/01/23 13:51:42;;;;;;;14.80;8.30;;;;;;;-2.17;73.60;101716.49;107319;1246;69144;-80
2022/01/23 14:00:03;;;;;;;14.70;7.90;;;;;;;-2.24;73.69;101717.88;107284;1248;59641;-80
2022/01/23 14:02:42;;;;;;;17.30;8.70;;;;;;;-2.24;73.71;101724.88;107291;1247;72500;-77
2022/01/23 14:05:14;;;;;;;15.10;8.60;;;;;;;-2.24;73.59;101728.29;107291;1248;73132;-80
2022/01/23 14:07:54;;;;;;;16.50;9.50;;;;;;;-2.33;74.04;101731.39;107185;1247;69294;-75
2022/01/23 14:10:36;;;;;;;13.20;7.90;;;;;;;-2.41;73.68;101744.04;107367;1248;73879;-74
2022/01/23 14:13:19;;;;;;;14.60;7.90;;;;;;;-2.46;73.08;101749.84;107207;1249;59668;-73
2022/01/23 14:15:51;;;;;;;17.70;10.50;;;;;;;-2.57;73.65;101752.10;107570;1247;60911;-73
2022/01/23 14:18:28;;;;;;;19.50;9.70;;;;;;;-2.62;73.76;101752.95;107742;1247;73930;-73
2022/01/23 14:21:09;;;;;;;17.80;9.20;;;;;;;-2.70;73.17;101762.33;108187;1248;70956;-76
2022/01/23 14:23:38;;;;;;;12.90;6.90;;;;;;;-2.74;72.77;101770.52;107408;1249;67799;-74
2022/01/23 14:26:13;;;;;;;18.00;11.20;;;;;;;-2.91;71.96;101780.92;107243;1250;72779;-74
2022/01/23 14:28:47;;;;;;;15.90;8.40;;;;;;;-2.95;71.49;101780.92;107865;1250;59795;-75
2022/01/23 14:31:21;;;;;;;23.60;12.30;;;;;;;-2.95;70.95;101784.33;107624;1249;59642;-77
2022/01/23 14:33:57;;;;;;;23.80;12.80;;;;;;;-3.00;70.78;101789.78;107295;1249;72743;-75
2022/01/23 14:36:39;;;;;;;23.30;12.80;;;;;;;-3.15;70.66;101790.27;107303;1247;71762;-74
2022/01/23 14:39:12;;;;;;;17.60;10.30;;;;;;;-3.26;70.90;101803.89;107405;1248;68396;-77
2022/01/23 14:41:45;;;;;;;20.40;10.70;;;;;;;-3.27;70.27;101814.80;107249;1250;73966;-75
2022/01/23 14:44:26;;;;;;;24.80;10.70;;;;;;;-3.44;71.16;101826.84;107503;1247;62536;-76
2022/01/23 14:46:57;;;;;;;19.60;10.40;;;;;;;-3.61;71.65;101832.77;107502;1248;60876;-73
2022/01/23 14:49:30;;;;;;;17.30;10.00;;;;;;;-3.68;71.79;101835.27;107354;1249;72572;-73
2022/01/23 14:52:01;;;;;;;28.70;14.00;;;;;;;-3.67;72.23;101837.48;107435;1247;70961;-75
2022/01/23 14:54:32;;;;;;;18.90;10.60;;;;;;;-3.77;72.41;101842.20;107472;1248;68037;-78
2022/01/23 14:57:08;;;;;;;18.70;10.00;;;;;;;-3.79;72.07;101843.90;107517;1248;73167;-73
2022/01/23 14:59:37;;;;;;;25.50;11.30;;;;;;;-3.83;71.30;101858.35;107487;1247;61505;-78
2022/01/23 15:02:07;;;;;;;25.30;12.60;;;;;;;-3.90;71.23;101868.36;107557;1247;59325;-77
2022/01/23 15:04:46;;;;;;;19.70;11.00;;;;;;;-4.05;70.91;101869.97;107593;1247;74906;-76
2022/01/23 15:07:17;;;;;;;22.80;11.60;;;;;;;-4.05;70.68;101872.52;107235;1250;70736;-75
2022/01/23 15:09:49;;;;;;;19.70;10.30;;;;;;;-4.11;70.73;101874.52;107732;1247;70156;-76
2022/01/23 15:12:19;;;;;;;24.70;12.70;;;;;;;-4.20;70.96;101885.35;107468;1248;71241;-76